wp2latex [kinetic/arm64]

Version Triggers Date Duration Requester Result
3.108+ds-1 texlive-extra/2022.20220722-2 2022-07-27 02:10:41 UTC 0h 18m 59s - fail logartifacts
3.108+ds-1 texlive-base/2022.20220722-1 2022-07-26 02:12:40 UTC 0h 19m 45s - fail logartifacts
3.108+ds-1 texlive-extra/2022.20220722-1 2022-07-26 01:44:35 UTC 0h 20m 27s - fail logartifacts
3.108+ds-1 texlive-lang/2022.20220722-1 2022-07-26 01:21:58 UTC 0h 21m 47s - fail logartifacts
3.108+ds-1 migration-reference/0 2022-07-07 11:53:10 UTC 0h 26m 47s - fail logartifacts
3.108+ds-1 migration-reference/0 2022-07-07 10:46:54 UTC 0h 22m 36s - fail logartifacts
3.108+ds-1 wp2latex/3.108+ds-1 2022-07-07 07:53:23 UTC 0h 22m 30s - fail logartifacts
3.107+ds-1 texlive-extra/2022.20220605-1 2022-06-27 02:53:00 UTC 0h 19m 19s - fail logartifacts
3.107+ds-1 texlive-base/2022.20220605-1 2022-06-27 01:53:44 UTC 0h 23m 40s - fail logartifacts
3.107+ds-1 texlive-lang/2022.20220605-1 2022-06-27 00:41:38 UTC 0h 25m 31s - fail logartifacts
3.107+ds-1 migration-reference/0 2022-06-02 01:10:14 UTC 0h 21m 07s - fail logartifacts
3.107+ds-1 migration-reference/0 2022-06-01 19:25:54 UTC 0h 19m 03s - fail logartifacts
3.107+ds-1 texlive-extra/2022.20220405-3 texlive-base/2022.20220405-2 2022-06-01 19:21:44 UTC 0h 23m 48s - fail logartifacts
3.107+ds-1 texlive-base/2022.20220405-2 2022-06-01 15:46:01 UTC 0h 14m 03s - fail logartifacts
3.107+ds-1 texlive-lang/2022.20220405-3 texlive-base/2022.20220405-2 2022-06-01 13:13:23 UTC 0h 06m 17s - fail logartifacts
3.107+ds-1 wp2latex/3.107+ds-1 2022-05-29 19:23:16 UTC 0h 22m 55s - fail logartifacts
3.106+ds-2 migration-reference/0 2022-05-10 06:38:34 UTC 0h 18m 43s - fail logartifacts
3.106+ds-2 libpng1.6/1.6.37-5 2022-05-10 04:04:34 UTC 0h 18m 52s - fail logartifacts
3.106+ds-2 wp2latex/3.106+ds-2 2022-05-08 03:42:55 UTC 0h 19m 06s - fail logartifacts
3.104+ds-1 migration-reference/0 2022-02-15 02:16:52 UTC 0h 20m 56s - fail logartifacts